createdAt,value
2018-11-11T00:04:28.954Z,6.8
2018-11-11T00:09:31.459Z,6.8
2018-11-11T00:14:33.871Z,6.8
2018-11-11T00:19:36.351Z,6.7
2018-11-11T00:24:38.825Z,6.7
2018-11-11T00:29:41.263Z,6.8
2018-11-11T00:34:43.706Z,6.8
2018-11-11T00:39:46.271Z,6.8
2018-11-11T00:44:48.627Z,6.8
2018-11-11T00:49:51.118Z,6.8
2018-11-11T00:54:53.533Z,6.9
2018-11-11T00:59:55.995Z,6.9
2018-11-11T01:04:58.463Z,6.9
2018-11-11T01:10:00.954Z,6.8
2018-11-11T01:15:03.389Z,6.7
2018-11-11T01:20:05.832Z,6.7
2018-11-11T01:25:08.310Z,6.7
2018-11-11T01:30:10.815Z,6.7
2018-11-11T01:35:13.272Z,6.6
2018-11-11T01:40:15.653Z,6.5
2018-11-11T01:45:18.122Z,6.4
2018-11-11T01:50:20.564Z,6.4
2018-11-11T01:55:23.032Z,6.4
2018-11-11T02:00:25.510Z,6.4
2018-11-11T02:05:27.935Z,6.4
2018-11-11T02:10:30.392Z,6.5
2018-11-11T02:15:32.940Z,6.4
2018-11-11T02:20:35.332Z,6.5
2018-11-11T02:25:37.776Z,6.6
2018-11-11T02:30:40.230Z,6.5
2018-11-11T02:35:42.674Z,6.6
2018-11-11T02:40:45.152Z,6.6
2018-11-11T02:45:47.595Z,6.5
2018-11-11T02:50:50.044Z,6.4
2018-11-11T02:55:52.523Z,6.4
2018-11-11T03:00:54.991Z,6.4
2018-11-11T03:05:57.434Z,6.4
2018-11-11T03:10:59.906Z,6.5
2018-11-11T03:16:02.347Z,6.5
2018-11-11T03:21:04.793Z,6.6
2018-11-11T03:26:07.247Z,6.7
2018-11-11T03:31:09.717Z,6.8
2018-11-11T03:36:12.230Z,6.9
2018-11-11T03:41:14.640Z,7
2018-11-11T03:46:17.139Z,7
2018-11-11T03:51:19.549Z,7.1
2018-11-11T03:56:22.034Z,7.2
2018-11-11T04:01:24.470Z,7.3
2018-11-11T04:06:26.916Z,7.3
2018-11-11T04:11:29.381Z,7.4
2018-11-11T04:16:31.839Z,7.4
2018-11-11T04:21:34.306Z,7.4
2018-11-11T04:26:36.799Z,7.4
2018-11-11T04:31:39.221Z,7.5
2018-11-11T04:36:41.686Z,7.5
2018-11-11T04:41:44.142Z,7.6
2018-11-11T04:46:46.593Z,7.5
2018-11-11T04:51:49.131Z,7.5
2018-11-11T04:56:51.508Z,7.6
2018-11-11T05:01:53.990Z,7.7
2018-11-11T05:06:56.477Z,7.7
2018-11-11T05:11:58.883Z,7.8
2018-11-11T05:17:01.434Z,7.9
2018-11-11T05:22:03.860Z,7.9
2018-11-11T05:27:06.301Z,8
2018-11-11T05:32:13.721Z,7.9
2018-11-11T05:37:11.168Z,7.9
2018-11-11T05:42:13.662Z,7.9
2018-11-11T05:47:16.191Z,8
2018-11-11T05:52:18.663Z,8.1
2018-11-11T05:57:21.012Z,8.1
2018-11-11T06:02:23.475Z,8.1
2018-11-11T06:07:25.937Z,8.1
2018-11-11T06:12:28.419Z,8
2018-11-11T06:17:30.870Z,7.9
2018-11-11T06:22:33.319Z,7.8
2018-11-11T06:27:35.898Z,7.8
2018-11-11T06:32:38.280Z,7.7
2018-11-11T06:37:40.721Z,7.9
2018-11-11T06:42:43.133Z,7.9
2018-11-11T06:47:45.597Z,7.9
2018-11-11T06:52:48.072Z,8
2018-11-11T06:57:50.569Z,8
2018-11-11T07:02:52.964Z,8
2018-11-11T07:07:55.430Z,8.1
2018-11-11T07:12:57.984Z,8.1
2018-11-11T07:18:00.350Z,8.2
2018-11-11T07:23:02.799Z,8.2
2018-11-11T07:28:05.275Z,8.3
2018-11-11T07:33:07.721Z,8.2
2018-11-11T07:38:10.175Z,8.3
2018-11-11T07:43:12.645Z,8.4
2018-11-11T07:48:15.091Z,8.5
2018-11-11T07:53:17.552Z,8.6
2018-11-11T07:58:20.021Z,8.6
2018-11-11T08:03:22.478Z,8.7
2018-11-11T08:08:24.935Z,8.7
2018-11-11T08:13:27.389Z,8.8
2018-11-11T08:18:29.843Z,9
2018-11-11T08:23:32.292Z,9.2
2018-11-11T08:28:34.752Z,9.2
2018-11-11T08:33:37.220Z,9.2
2018-11-11T08:38:39.670Z,9.3
2018-11-11T08:43:42.175Z,9.4
2018-11-11T08:48:44.579Z,9.7
2018-11-11T08:53:47.048Z,10.1
2018-11-11T08:58:49.527Z,10.2
2018-11-11T09:03:51.985Z,10.4
2018-11-11T09:08:54.416Z,10.4
2018-11-11T09:18:59.321Z,10.8
2018-11-11T09:24:01.793Z,11.3
2018-11-11T09:29:04.276Z,11.7
2018-11-11T09:34:06.715Z,12.1
2018-11-11T09:39:09.265Z,12.2
2018-11-11T09:44:11.614Z,12.3
2018-11-11T09:49:14.101Z,12.3
2018-11-11T09:54:16.589Z,12.7
2018-11-11T09:59:19.004Z,13.1
2018-11-11T10:04:21.485Z,13.4
2018-11-11T10:09:23.911Z,13.6
2018-11-11T10:14:26.385Z,13.4
2018-11-11T10:19:28.816Z,13.4
2018-11-11T10:24:31.312Z,13.5
2018-11-11T10:29:33.763Z,13.6
2018-11-11T10:34:36.200Z,13.7
2018-11-11T10:39:38.650Z,13.7
2018-11-11T10:44:41.124Z,13.8
2018-11-11T10:49:43.617Z,13.9
2018-11-11T10:54:46.042Z,14
2018-11-11T10:59:48.501Z,14.1
2018-11-11T11:04:50.942Z,14
2018-11-11T11:09:53.401Z,13.6
2018-11-11T11:14:55.859Z,13.4
2018-11-11T11:19:58.341Z,13.5
2018-11-11T11:25:00.771Z,13.7
2018-11-11T11:30:03.278Z,13.9
2018-11-11T11:35:05.729Z,14.3
2018-11-11T11:40:08.145Z,14.5
2018-11-11T11:45:10.636Z,14.7
2018-11-11T11:50:13.108Z,14.8
2018-11-11T11:55:15.575Z,15
2018-11-11T12:00:17.977Z,15
2018-11-11T12:10:22.921Z,15.2
2018-11-11T12:15:25.366Z,15.2
2018-11-11T12:20:27.800Z,15.3
2018-11-11T12:25:30.258Z,15.2
2018-11-11T12:30:32.907Z,15.2
2018-11-11T12:35:35.191Z,15
2018-11-11T12:40:37.641Z,14.8
2018-11-11T12:45:40.118Z,14.7
2018-11-11T12:50:42.572Z,14.7
2018-11-11T12:55:45.021Z,14.7
2018-11-11T13:00:47.558Z,14.8
2018-11-11T13:05:49.936Z,14.7
2018-11-11T13:10:52.403Z,14.5
2018-11-11T13:15:54.847Z,14.3
2018-11-11T13:20:57.304Z,14.2
2018-11-11T13:25:59.780Z,14
2018-11-11T13:31:02.239Z,13.9
2018-11-11T13:36:04.677Z,13.8
2018-11-11T13:41:07.134Z,13.8
2018-11-11T13:46:09.759Z,13.8
2018-11-11T13:51:12.056Z,13.7
2018-11-11T13:56:14.517Z,13.7
2018-11-11T14:01:16.969Z,13.5
2018-11-11T14:06:19.425Z,13.4
2018-11-11T14:11:21.890Z,13.2
2018-11-11T14:16:24.356Z,13.2
2018-11-11T14:21:26.791Z,13
2018-11-11T14:26:29.349Z,12.9
2018-11-11T14:31:31.704Z,12.8
2018-11-11T14:36:34.172Z,12.7
2018-11-11T14:41:36.639Z,12.7
2018-11-11T14:46:39.092Z,12.6
2018-11-11T14:51:41.553Z,12.5
2018-11-11T14:56:44.055Z,12.3
2018-11-11T15:01:46.499Z,12.2
2018-11-11T15:06:48.918Z,12
2018-11-11T15:11:51.390Z,11.9
2018-11-11T15:16:53.833Z,11.6
2018-11-11T15:21:56.282Z,11.5
2018-11-11T15:26:58.737Z,11.2
2018-11-11T15:32:01.202Z,11
2018-11-11T15:37:03.661Z,10.7
2018-11-11T15:42:06.129Z,10.6
2018-11-11T15:47:08.571Z,10.3
2018-11-11T15:52:11.097Z,10.1
2018-11-11T15:57:13.497Z,9.9
2018-11-11T16:02:15.953Z,9.8
2018-11-11T16:07:18.400Z,9.8
2018-11-11T16:12:20.876Z,9.8
2018-11-11T16:17:23.375Z,9.6
2018-11-11T16:22:25.793Z,9.5
2018-11-11T16:27:28.305Z,9.2
2018-11-11T16:32:30.689Z,9
2018-11-11T16:37:33.155Z,9
2018-11-11T16:42:35.697Z,9
2018-11-11T16:47:38.103Z,8.9
2018-11-11T16:52:40.618Z,8.8
2018-11-11T16:57:42.982Z,8.7
2018-11-11T17:02:45.439Z,8.6
2018-11-11T17:07:47.910Z,8.4
2018-11-11T17:12:50.350Z,8.2
2018-11-11T17:17:52.806Z,8.1
2018-11-11T17:22:55.419Z,8
2018-11-11T17:27:57.791Z,7.9
2018-11-11T17:33:00.317Z,7.8
2018-11-11T17:38:02.644Z,7.7
2018-11-11T17:43:05.122Z,7.7
2018-11-11T17:48:07.569Z,7.7
2018-11-11T17:53:10.022Z,7.6
2018-11-11T17:58:12.492Z,7.5
2018-11-11T18:03:15.059Z,7.5
2018-11-11T18:08:17.431Z,7.6
2018-11-11T18:13:19.872Z,7.8
2018-11-11T18:18:22.320Z,7.9
2018-11-11T18:23:24.761Z,7.9
2018-11-11T18:28:27.268Z,8.1
2018-11-11T18:33:29.674Z,8.2
2018-11-11T18:38:32.140Z,8.1
2018-11-11T18:43:34.622Z,8
2018-11-11T18:48:37.050Z,8
2018-11-11T18:53:39.550Z,8.1
2018-11-11T18:58:41.968Z,8.3
2018-11-11T19:03:44.420Z,8.3
2018-11-11T19:08:46.877Z,8.3
2018-11-11T19:13:49.336Z,8.1
2018-11-11T19:18:51.927Z,8
2018-11-11T19:23:54.450Z,7.7
2018-11-11T19:28:56.723Z,7.7
2018-11-11T19:33:59.177Z,7.8
